Time;durP1;ratioP1;P1;durP2;ratioP2;P2;SDS_P1;SDS_P2;PMS_P1;PMS_P2;Temp;Humidity;BMP_temperature;BMP_pressure;BME280_temperature;BME280_humidity;BME280_pressure;Samples;Min_cycle;Max_cycle;Signal;HPM_P1;HPM_P2
2022/08/01 00:01:54;;;;;;;4.53;1.60;;;24.20;66.80;;;;;;6969469;28;20435;-87
2022/08/01 00:05:18;;;;;;;3.67;1.70;;;24.20;67.00;;;;;;6974552;28;20479;-87
2022/08/01 00:08:40;;;;;;;4.13;1.60;;;24.20;68.60;;;;;;6986877;28;20928;-87
2022/08/01 00:12:02;;;;;;;4.57;1.60;;;24.00;69.20;;;;;;6971391;28;20436;-87
2022/08/01 00:15:24;;;;;;;4.25;1.63;;;23.90;66.30;;;;;;6971174;28;20437;-87
2022/08/01 00:18:46;;;;;;;3.20;1.60;;;23.90;67.10;;;;;;6970060;28;20469;-87
2022/08/01 00:22:10;;;;;;;4.57;1.80;;;23.90;66.10;;;;;;6953857;28;20438;-88
2022/08/01 00:25:32;;;;;;;3.72;1.70;;;23.80;66.00;;;;;;6962164;28;21221;-86
2022/08/01 00:28:55;;;;;;;4.30;1.70;;;23.80;66.10;;;;;;6971168;28;20433;-86
2022/08/01 00:32:17;;;;;;;4.32;1.70;;;23.80;66.20;;;;;;6981119;28;20439;-86
2022/08/01 00:35:39;;;;;;;4.40;1.70;;;23.80;66.10;;;;;;6974479;28;20476;-86
2022/08/01 00:39:02;;;;;;;3.83;1.67;;;23.80;66.10;;;;;;6971775;28;20440;-86
2022/08/01 00:42:24;;;;;;;3.65;1.80;;;23.70;66.00;;;;;;6973471;28;20425;-86
2022/08/01 00:45:46;;;;;;;3.05;1.52;;;23.70;66.10;;;;;;6968223;28;20524;-87
2022/08/01 00:49:09;;;;;;;4.70;1.90;;;23.70;66.60;;;;;;6953158;28;20437;-86
2022/08/01 00:52:31;;;;;;;4.43;1.87;;;23.70;67.40;;;;;;6974031;28;20433;-87
2022/08/01 00:55:54;;;;;;;3.67;1.60;;;23.60;67.40;;;;;;6985763;28;20431;-84
2022/08/01 00:59:19;;;;;;;4.60;1.80;;;23.50;67.50;;;;;;6971903;28;20489;-83
2022/08/01 01:02:41;;;;;;;4.32;1.70;;;23.40;68.10;;;;;;6973140;28;20461;-88
2022/08/01 01:06:15;;;;;;;4.57;1.88;;;23.40;68.10;;;;;;6968112;28;20437;-87
2022/08/01 01:09:45;;;;;;;3.80;1.67;;;23.40;68.10;;;;;;6967792;28;20459;-87
2022/08/01 01:13:16;;;;;;;5.35;1.83;;;23.30;68.30;;;;;;6966222;28;20795;-88
2022/08/01 01:16:41;;;;;;;3.47;1.77;;;23.30;68.40;;;;;;6963202;28;20433;-89
2022/08/01 01:20:04;;;;;;;4.50;1.90;;;23.30;68.80;;;;;;6967751;28;20874;-85
2022/08/01 01:23:47;;;;;;;3.95;1.92;;;23.20;68.80;;;;;;6987593;28;20436;-87
2022/08/01 01:27:19;;;;;;;4.10;1.90;;;23.20;69.00;;;;;;6975463;28;20487;-87
2022/08/01 01:30:46;;;;;;;4.20;1.90;;;23.10;69.20;;;;;;6962475;28;20794;-88
2022/08/01 01:34:10;;;;;;;4.50;2.10;;;23.10;69.50;;;;;;6959078;28;20444;-85
2022/08/01 01:37:34;;;;;;;3.85;1.73;;;23.10;69.90;;;;;;6989393;28;20464;-85
2022/08/01 01:40:58;;;;;;;4.00;1.90;;;23.00;70.70;;;;;;6983906;28;20945;-87
2022/08/01 01:44:20;;;;;;;4.13;1.98;;;23.00;70.30;;;;;;6966721;28;20433;-88
2022/08/01 01:47:44;;;;;;;5.43;2.00;;;22.80;70.50;;;;;;6973576;28;20425;-87
2022/08/01 01:51:07;;;;;;;4.03;1.90;;;22.80;70.80;;;;;;6964692;28;20484;-84
2022/08/01 01:54:34;;;;;;;4.80;1.80;;;22.70;70.90;;;;;;6981730;28;20914;-85
2022/08/01 01:57:57;;;;;;;4.47;2.00;;;22.70;71.20;;;;;;6969604;28;20429;-86
2022/08/01 02:01:21;;;;;;;5.88;1.90;;;22.60;71.40;;;;;;6978541;28;20898;-85
2022/08/01 02:04:47;;;;;;;5.07;2.08;;;22.60;71.80;;;;;;6980360;28;20472;-86
2022/08/01 02:08:12;;;;;;;4.90;2.10;;;22.50;72.20;;;;;;6986672;28;20436;-86
2022/08/01 02:11:35;;;;;;;3.92;2.10;;;22.40;72.50;;;;;;6969116;28;20460;-85
2022/08/01 02:14:58;;;;;;;4.30;2.10;;;22.40;72.90;;;;;;6985989;28;20470;-87
2022/08/01 02:18:20;;;;;;;4.90;2.10;;;22.40;73.10;;;;;;6973575;28;20435;-85
2022/08/01 02:21:50;;;;;;;5.00;2.08;;;22.40;73.20;;;;;;6978889;28;20436;-89
2022/08/01 02:25:20;;;;;;;4.05;2.15;;;22.30;73.50;;;;;;6959523;28;20433;-86
2022/08/01 02:28:49;;;;;;;4.30;2.10;;;22.30;73.50;;;;;;6968862;28;20464;-86
2022/08/01 02:32:17;;;;;;;3.83;2.07;;;22.30;73.70;;;;;;6985050;28;20446;-86
2022/08/01 02:35:43;;;;;;;4.88;2.15;;;22.20;73.90;;;;;;6965297;28;20469;-87
2022/08/01 02:39:12;;;;;;;3.45;2.05;;;22.20;73.90;;;;;;6976945;28;20434;-85
2022/08/01 02:42:37;;;;;;;4.40;2.30;;;22.10;74.10;;;;;;6957582;28;20471;-88
2022/08/01 02:46:02;;;;;;;3.90;2.03;;;22.10;74.60;;;;;;6992480;28;20510;-87
2022/08/01 02:49:27;;;;;;;5.05;2.25;;;22.00;74.60;;;;;;6993628;28;20652;-86
2022/08/01 02:52:52;;;;;;;4.20;2.20;;;22.00;74.80;;;;;;6987617;28;20459;-86
2022/08/01 02:56:18;;;;;;;4.70;2.20;;;22.00;75.00;;;;;;6978414;28;20433;-85
2022/08/01 02:59:41;;;;;;;4.10;2.20;;;21.90;75.20;;;;;;6978496;28;20474;-87
2022/08/01 03:03:06;;;;;;;3.88;2.13;;;21.90;75.30;;;;;;6980323;28;20776;-86
2022/08/01 03:06:29;;;;;;;4.47;2.40;;;21.80;75.50;;;;;;6978480;28;20430;-83
2022/08/01 03:09:53;;;;;;;6.07;2.30;;;21.80;75.60;;;;;;6992437;28;20925;-86
2022/08/01 03:13:18;;;;;;;3.97;2.30;;;21.80;75.90;;;;;;6989634;28;20436;-84
2022/08/01 03:16:44;;;;;;;4.20;2.20;;;21.70;76.10;;;;;;6987060;28;20908;-82
2022/08/01 03:20:09;;;;;;;5.50;2.53;;;21.70;76.30;;;;;;6990783;28;20436;-83
2022/08/01 03:23:33;;;;;;;4.38;2.40;;;21.70;76.60;;;;;;6977897;28;20931;-84
2022/08/01 03:26:58;;;;;;;6.07;2.13;;;21.80;76.50;;;;;;6981698;28;20859;-83
2022/08/01 03:30:23;;;;;;;4.93;2.47;;;21.70;77.50;;;;;;6981699;28;20794;-82
2022/08/01 03:33:45;;;;;;;3.65;2.33;;;21.60;77.70;;;;;;6991744;28;21019;-80
2022/08/01 03:37:12;;;;;;;5.55;2.30;;;21.50;78.20;;;;;;6989577;28;20432;-82
2022/08/01 03:40:40;;;;;;;3.90;2.30;;;21.50;78.40;;;;;;6984968;28;20446;-83
2022/08/01 03:44:06;;;;;;;3.83;2.28;;;21.40;78.50;;;;;;6976565;28;20520;-83
2022/08/01 03:47:34;;;;;;;4.93;2.35;;;21.50;78.70;;;;;;6992776;28;20442;-84
2022/08/01 03:50:58;;;;;;;6.18;2.60;;;21.40;78.90;;;;;;6994778;28;20469;-83
2022/08/01 03:54:25;;;;;;;4.72;2.20;;;21.40;79.40;;;;;;6980186;28;20424;-82
2022/08/01 03:57:49;;;;;;;4.07;2.22;;;21.40;79.80;;;;;;7000822;28;20470;-82
2022/08/01 04:01:11;;;;;;;3.97;2.33;;;21.30;80.40;;;;;;7000432;28;20454;-83
2022/08/01 04:04:35;;;;;;;4.78;2.30;;;21.30;79.20;;;;;;7007342;28;20435;-82
2022/08/01 04:07:59;;;;;;;4.13;2.22;;;21.30;79.50;;;;;;7029024;28;20427;-83
2022/08/01 04:11:21;;;;;;;4.45;2.20;;;21.30;79.80;;;;;;7028540;28;20449;-82
2022/08/01 04:14:43;;;;;;;4.10;2.30;;;21.20;80.20;;;;;;7025972;28;20431;-85
2022/08/01 04:18:06;;;;;;;4.75;2.40;;;21.20;79.80;;;;;;7001389;28;20424;-82
2022/08/01 04:21:33;;;;;;;4.00;2.33;;;21.20;79.80;;;;;;7003173;28;20452;-82
2022/08/01 04:24:58;;;;;;;4.00;2.40;;;21.10;80.10;;;;;;7003279;28;20429;-83
2022/08/01 04:28:23;;;;;;;4.88;2.30;;;21.20;80.30;;;;;;6977262;28;20425;-82
2022/08/01 04:31:47;;;;;;;3.75;2.20;;;21.10;80.10;;;;;;6972977;28;20441;-84
2022/08/01 04:35:16;;;;;;;5.60;2.60;;;21.10;80.20;;;;;;6992103;28;20409;-84
2022/08/01 04:38:41;;;;;;;4.35;2.35;;;21.10;80.50;;;;;;6988975;28;20440;-86
2022/08/01 04:42:07;;;;;;;4.60;2.43;;;21.00;80.60;;;;;;6978680;28;20433;-84
2022/08/01 04:45:30;;;;;;;4.70;2.40;;;21.00;80.90;;;;;;6976887;28;20427;-84
2022/08/01 04:48:52;;;;;;;4.60;2.40;;;21.00;81.00;;;;;;6974822;28;20425;-81
2022/08/01 04:52:17;;;;;;;4.40;2.38;;;21.00;81.20;;;;;;6976487;28;20433;-82
2022/08/01 04:55:41;;;;;;;4.13;2.43;;;20.90;81.40;;;;;;6977345;28;20931;-82
2022/08/01 05:02:44;;;;;;;3.90;2.43;;;20.90;81.90;;;;;;6939017;28;20437;-83
2022/08/01 05:06:07;;;;;;;5.25;2.53;;;20.90;82.00;;;;;;6941215;28;20442;-83
2022/08/01 05:09:30;;;;;;;5.55;2.58;;;20.90;82.10;;;;;;6951974;28;20436;-82
2022/08/01 05:12:53;;;;;;;4.95;2.70;;;20.90;82.20;;;;;;6969056;28;20436;-82
2022/08/01 05:16:16;;;;;;;5.05;2.53;;;21.00;82.40;;;;;;6968526;28;20432;-83
2022/08/01 05:19:40;;;;;;;4.30;2.50;;;21.00;82.20;;;;;;6968877;28;20501;-83
2022/08/01 05:23:04;;;;;;;4.65;2.42;;;20.90;82.20;;;;;;6986297;28;20782;-83
2022/08/01 05:26:26;;;;;;;5.25;2.45;;;21.00;82.70;;;;;;6996353;28;20431;-82
2022/08/01 05:29:50;;;;;;;3.90;2.38;;;21.00;82.60;;;;;;6995627;28;21026;-82
2022/08/01 05:33:12;;;;;;;5.50;2.60;;;21.10;82.80;;;;;;6996395;28;20430;-83
2022/08/01 05:36:34;;;;;;;5.10;2.72;;;21.00;82.90;;;;;;6996273;28;20463;-82
2022/08/01 05:39:56;;;;;;;5.75;2.67;;;21.10;83.00;;;;;;6977759;28;20799;-84
2022/08/01 05:43:19;;;;;;;5.03;2.83;;;21.10;82.80;;;;;;6974397;28;20451;-83
2022/08/01 05:46:42;;;;;;;4.50;2.70;;;21.00;83.60;;;;;;6974354;28;20437;-81
2022/08/01 05:50:05;;;;;;;5.53;2.85;;;21.10;83.30;;;;;;6981573;28;20442;-83
2022/08/01 05:53:27;;;;;;;4.63;2.55;;;21.10;83.60;;;;;;6996653;28;20427;-82
2022/08/01 05:56:49;;;;;;;5.27;2.70;;;21.20;83.70;;;;;;6996546;28;20457;-82
2022/08/01 06:00:14;;;;;;;4.47;2.75;;;21.20;84.10;;;;;;6994008;28;20439;-82
2022/08/01 06:03:37;;;;;;;5.15;2.70;;;21.20;84.20;;;;;;6996364;28;20897;-81
2022/08/01 06:06:59;;;;;;;5.25;2.83;;;21.30;84.40;;;;;;6995984;28;20428;-83
2022/08/01 06:10:22;;;;;;;4.82;2.85;;;21.40;85.30;;;;;;6999826;28;20439;-83
2022/08/01 06:13:44;;;;;;;4.33;2.80;;;21.40;85.00;;;;;;7001216;28;20439;-83
2022/08/01 06:17:06;;;;;;;5.55;2.90;;;21.50;85.00;;;;;;6995378;28;20468;-82
2022/08/01 06:20:29;;;;;;;5.43;2.80;;;21.60;85.40;;;;;;6994186;28;20435;-82
2022/08/01 06:23:51;;;;;;;4.80;3.00;;;21.70;85.50;;;;;;7001081;28;20451;-84
2022/08/01 06:27:13;;;;;;;5.57;2.83;;;21.80;85.50;;;;;;7000638;28;20485;-82
2022/08/01 06:30:36;;;;;;;5.55;3.03;;;21.80;86.30;;;;;;7000467;28;20451;-81
2022/08/01 06:33:58;;;;;;;5.63;3.20;;;21.80;85.80;;;;;;7001140;28;20820;-83
2022/08/01 06:37:21;;;;;;;5.90;3.00;;;21.80;86.30;;;;;;7000643;28;20920;-78
2022/08/01 06:41:16;;;;;;;6.53;3.28;;;21.80;86.60;;;;;;7053181;27;20401;-80
2022/08/01 06:44:38;;;;;;;6.13;3.00;;;21.80;85.00;;;;;;7019005;28;20426;-78
2022/08/01 06:48:00;;;;;;;6.43;2.92;;;21.80;86.30;;;;;;7020284;28;20912;-80
2022/08/01 06:51:22;;;;;;;6.00;3.10;;;21.90;85.30;;;;;;7014363;28;20431;-79
2022/08/01 06:54:44;;;;;;;4.88;3.28;;;22.00;85.40;;;;;;7016492;28;20429;-77
2022/08/01 06:58:07;;;;;;;5.53;3.03;;;21.90;85.30;;;;;;7015806;28;20470;-79
2022/08/01 07:01:30;;;;;;;5.32;3.10;;;22.00;85.20;;;;;;7015724;28;20507;-79
2022/08/01 07:04:52;;;;;;;5.43;3.22;;;22.10;85.70;;;;;;7016006;28;20784;-80
2022/08/01 07:08:14;;;;;;;4.72;3.00;;;22.10;85.80;;;;;;7015863;28;20442;-78
2022/08/01 07:11:36;;;;;;;4.85;3.20;;;22.20;86.20;;;;;;7028848;28;20438;-79
2022/08/01 07:15:00;;;;;;;5.72;3.10;;;22.10;86.20;;;;;;7015770;28;20963;-76
2022/08/01 07:18:22;;;;;;;4.60;3.15;;;22.20;87.10;;;;;;7016109;28;20457;-75
2022/08/01 07:21:44;;;;;;;4.70;3.20;;;22.30;86.80;;;;;;7015954;28;20871;-78
2022/08/01 07:25:08;;;;;;;6.40;3.15;;;22.30;87.50;;;;;;7016098;28;20434;-79
2022/08/01 07:28:31;;;;;;;6.25;3.20;;;22.40;87.10;;;;;;7016114;28;20437;-78
2022/08/01 07:31:56;;;;;;;6.63;3.42;;;22.50;87.50;;;;;;7016445;28;20473;-80
2022/08/01 07:35:18;;;;;;;4.68;3.00;;;22.50;86.90;;;;;;7016101;28;20515;-79
2022/08/01 07:38:40;;;;;;;4.50;3.03;;;22.50;86.90;;;;;;7021955;28;20476;-78
2022/08/01 07:42:02;;;;;;;4.28;2.90;;;22.70;87.20;;;;;;7042944;28;20498;-76
2022/08/01 07:45:26;;;;;;;5.13;3.05;;;22.70;86.50;;;;;;7043068;28;20429;-78
2022/08/01 07:48:49;;;;;;;5.88;2.88;;;22.80;86.30;;;;;;7042902;28;20425;-79
2022/08/01 07:52:11;;;;;;;4.40;2.50;;;22.90;85.70;;;;;;7023735;28;20923;-79
2022/08/01 07:55:34;;;;;;;5.20;2.80;;;22.90;85.40;;;;;;7023679;28;20430;-77
2022/08/01 07:58:55;;;;;;;5.13;2.50;;;23.00;85.80;;;;;;7013396;28;20429;-77
2022/08/01 08:02:18;;;;;;;3.63;2.17;;;23.10;85.60;;;;;;7023923;28;20847;-79
2022/08/01 08:05:41;;;;;;;4.20;2.30;;;23.10;85.70;;;;;;7024492;28;20433;-80
2022/08/01 08:09:03;;;;;;;5.05;2.38;;;23.10;85.30;;;;;;7023125;28;20468;-78
2022/08/01 08:12:26;;;;;;;4.10;2.60;;;23.20;85.70;;;;;;7024054;28;20853;-79
2022/08/01 08:15:48;;;;;;;3.88;2.10;;;23.30;85.40;;;;;;7032191;28;20478;-77
2022/08/01 08:19:10;;;;;;;4.35;2.28;;;23.40;84.50;;;;;;7024492;28;20931;-78
2022/08/01 08:22:34;;;;;;;3.83;2.10;;;23.40;84.90;;;;;;7023016;28;20897;-77
2022/08/01 08:25:56;;;;;;;4.20;2.10;;;23.50;84.60;;;;;;7021997;28;20458;-77
2022/08/01 08:29:18;;;;;;;4.00;2.30;;;23.60;83.80;;;;;;7022835;28;20440;-77
2022/08/01 08:32:41;;;;;;;4.20;2.10;;;23.70;84.40;;;;;;7022768;28;20468;-77
2022/08/01 08:36:04;;;;;;;3.78;1.90;;;23.70;84.00;;;;;;7022449;28;20422;-82
2022/08/01 08:39:29;;;;;;;3.72;1.95;;;23.80;83.20;;;;;;7022508;28;20465;-78
2022/08/01 08:42:52;;;;;;;4.20;2.00;;;23.90;84.60;;;;;;7021719;28;20437;-79
2022/08/01 08:46:16;;;;;;;3.60;2.00;;;23.90;83.30;;;;;;7025443;28;20515;-79
2022/08/01 08:49:38;;;;;;;3.55;2.10;;;24.00;83.60;;;;;;7041447;28;20422;-81
2022/08/01 08:53:02;;;;;;;5.13;2.25;;;23.90;82.90;;;;;;7034345;28;20421;-78
2022/08/01 08:56:29;;;;;;;4.53;2.47;;;24.10;83.10;;;;;;7021646;28;20426;-77
2022/08/01 08:59:53;;;;;;;3.80;2.28;;;24.10;84.50;;;;;;7022545;28;20446;-77
2022/08/01 09:03:16;;;;;;;4.88;2.53;;;24.20;83.30;;;;;;7020543;28;20430;-77
2022/08/01 09:06:38;;;;;;;5.55;2.50;;;24.40;82.90;;;;;;7024566;28;20429;-77
2022/08/01 09:10:00;;;;;;;4.63;2.40;;;24.40;82.90;;;;;;7024890;28;20460;-78
2022/08/01 09:13:24;;;;;;;3.67;2.25;;;24.50;82.80;;;;;;7028306;28;20454;-79
2022/08/01 09:16:46;;;;;;;4.67;2.57;;;24.60;83.00;;;;;;7025154;28;20433;-80
2022/08/01 09:20:23;;;;;;;4.13;2.47;;;24.60;84.00;;;;;;7020790;28;21010;-77
2022/08/01 09:23:49;;;;;;;5.00;2.50;;;24.60;82.80;;;;;;7020923;28;20476;-78
2022/08/01 09:27:19;;;;;;;3.75;2.40;;;24.70;82.80;;;;;;7021101;28;20426;-79
2022/08/01 09:30:43;;;;;;;3.67;2.38;;;24.80;81.50;;;;;;7021291;28;20487;-77
2022/08/01 09:34:05;;;;;;;4.90;2.60;;;24.80;81.80;;;;;;7034582;28;20437;-77
2022/08/01 09:37:31;;;;;;;5.32;2.50;;;24.90;82.10;;;;;;7025481;28;20438;-78
2022/08/01 09:40:55;;;;;;;4.97;2.60;;;24.90;80.90;;;;;;7021799;28;20526;-79
2022/08/01 09:44:20;;;;;;;4.00;2.60;;;25.00;80.90;;;;;;7021275;28;21043;-78
2022/08/01 09:47:43;;;;;;;4.00;2.50;;;25.20;80.40;;;;;;7020559;28;20422;-79
2022/08/01 09:51:05;;;;;;;4.93;2.60;;;25.20;80.50;;;;;;7019881;28;20476;-77
2022/08/01 09:54:33;;;;;;;4.30;2.40;;;25.30;80.80;;;;;;7034603;28;20428;-80
2022/08/01 09:57:58;;;;;;;4.03;2.40;;;25.30;80.10;;;;;;7038493;28;20445;-78
2022/08/01 10:01:22;;;;;;;3.95;2.50;;;25.40;79.30;;;;;;7025388;28;20459;-79
2022/08/01 10:04:50;;;;;;;3.85;2.47;;;25.30;79.20;;;;;;6992906;28;20428;-78
2022/08/01 10:08:12;;;;;;;3.63;2.28;;;25.50;77.70;;;;;;6993133;28;20883;-77
2022/08/01 10:11:36;;;;;;;3.55;2.30;;;25.60;77.00;;;;;;6997941;28;20430;-77
2022/08/01 10:14:59;;;;;;;4.32;2.42;;;25.60;76.80;;;;;;7019014;28;20448;-76
2022/08/01 10:18:21;;;;;;;3.70;2.40;;;25.70;76.90;;;;;;7020618;28;20452;-76
2022/08/01 10:21:49;;;;;;;4.43;2.35;;;25.70;76.10;;;;;;7020068;28;20477;-77
2022/08/01 10:25:12;;;;;;;4.40;2.40;;;25.90;77.90;;;;;;7019975;28;20436;-78
2022/08/01 10:28:37;;;;;;;4.22;2.30;;;25.90;77.00;;;;;;6992371;28;20427;-76
2022/08/01 10:31:59;;;;;;;4.57;2.42;;;25.90;77.70;;;;;;7014269;28;20437;-77
2022/08/01 10:35:22;;;;;;;4.30;2.53;;;25.90;76.30;;;;;;7020061;28;20457;-78
2022/08/01 10:38:47;;;;;;;3.50;2.38;;;25.90;76.40;;;;;;7019590;28;20560;-77
2022/08/01 10:42:12;;;;;;;5.43;2.60;;;25.90;76.30;;;;;;7019486;28;20430;-84
2022/08/01 10:45:34;;;;;;;4.15;2.65;;;25.90;75.80;;;;;;7020060;28;20429;-79
2022/08/01 10:49:07;;;;;;;4.90;2.70;;;25.90;75.40;;;;;;7019848;28;20430;-78
2022/08/01 10:52:29;;;;;;;5.00;2.50;;;25.90;75.70;;;;;;7019742;28;20517;-80
2022/08/01 10:56:02;;;;;;;5.22;2.60;;;25.90;75.60;;;;;;7019662;28;20457;-78
2022/08/01 10:59:26;;;;;;;4.85;2.58;;;26.10;75.30;;;;;;7022198;28;20456;-76
2022/08/01 11:03:01;;;;;;;4.40;2.60;;;26.20;74.30;;;;;;7023703;28;20449;-77
2022/08/01 11:06:28;;;;;;;3.97;2.40;;;26.30;74.50;;;;;;7021825;28;20926;-78
2022/08/01 11:10:05;;;;;;;5.82;3.80;;;26.40;73.60;;;;;;7018997;28;20433;-78
2022/08/01 11:14:06;;;;;;;9.77;4.22;;;26.30;77.00;;;;;;7019943;28;20425;-77
2022/08/01 11:17:33;;;;;;;6.32;4.20;;;26.20;76.70;;;;;;7011746;28;20478;-77
2022/08/01 11:20:57;;;;;;;7.60;4.30;;;26.30;77.20;;;;;;7019935;28;20438;-78
2022/08/01 11:24:58;;;;;;;6.23;4.10;;;26.10;78.10;;;;;;7017972;28;20425;-77
2022/08/01 11:28:23;;;;;;;7.43;4.45;;;26.20;78.50;;;;;;7023546;28;20426;-80
2022/08/01 11:31:47;;;;;;;6.32;4.10;;;26.00;78.70;;;;;;7024948;28;20979;-80
2022/08/01 11:35:09;;;;;;;6.05;3.95;;;26.10;77.40;;;;;;7024679;28;20426;-79
2022/08/01 11:38:33;;;;;;;5.07;3.90;;;26.00;76.90;;;;;;7024047;28;20870;-81
2022/08/01 11:41:56;;;;;;;5.88;4.00;;;26.10;77.70;;;;;;7024495;28;20449;-79
2022/08/01 11:45:18;;;;;;;6.32;4.20;;;26.10;77.10;;;;;;7024574;28;20899;-77
2022/08/01 11:48:41;;;;;;;7.05;4.93;;;26.10;77.10;;;;;;7024435;28;20437;-80
2022/08/01 11:52:07;;;;;;;6.25;4.45;;;26.20;79.50;;;;;;7025065;28;20440;-79
2022/08/01 11:55:30;;;;;;;13.02;6.68;;;26.30;80.40;;;;;;7026844;28;20436;-80
2022/08/01 11:59:00;;;;;;;10.07;6.10;;;26.30;81.80;;;;;;7024995;28;20433;-79
2022/08/01 12:02:25;;;;;;;7.60;4.57;;;26.40;83.00;;;;;;7023983;28;20494;-80
2022/08/01 12:05:48;;;;;;;7.93;5.73;;;26.50;84.30;;;;;;7024625;28;20426;-80
2022/08/01 12:09:23;;;;;;;7.38;5.18;;;26.50;82.80;;;;;;7022076;28;20466;-78
2022/08/01 12:12:48;;;;;;;6.47;4.30;;;26.60;83.80;;;;;;7024538;28;20433;-86
2022/08/01 12:16:11;;;;;;;7.00;4.65;;;26.40;85.70;;;;;;7042491;28;20418;-84
2022/08/01 12:19:36;;;;;;;6.13;4.00;;;26.40;87.80;;;;;;7031744;28;20440;-86
2022/08/01 12:23:02;;;;;;;6.60;4.20;;;26.60;84.30;;;;;;7033448;28;20437;-81
2022/08/01 12:26:24;;;;;;;5.83;3.80;;;26.60;83.20;;;;;;7025021;28;20941;-86
2022/08/01 12:29:47;;;;;;;6.20;4.05;;;26.70;81.80;;;;;;7024544;28;20461;-85
2022/08/01 12:33:11;;;;;;;6.50;4.33;;;26.90;83.40;;;;;;7007708;28;20434;-80
2022/08/01 12:36:34;;;;;;;6.20;3.67;;;26.90;82.90;;;;;;7023452;28;20486;-79
2022/08/01 12:39:58;;;;;;;4.80;3.10;;;27.10;78.00;;;;;;7022241;28;20949;-79
2022/08/01 12:43:24;;;;;;;5.05;2.72;;;27.10;77.50;;;;;;7022325;28;20482;-77
2022/08/01 12:46:46;;;;;;;4.65;2.60;;;27.10;74.80;;;;;;7023296;28;20425;-84
2022/08/01 12:50:13;;;;;;;5.10;3.00;;;27.10;73.80;;;;;;7022804;28;20483;-82
2022/08/01 12:53:35;;;;;;;4.78;2.72;;;27.00;73.70;;;;;;7022911;28;20589;-81
2022/08/01 12:56:59;;;;;;;6.07;2.67;;;27.00;74.10;;;;;;7024532;28;20793;-82
2022/08/01 13:00:24;;;;;;;5.15;3.00;;;27.30;74.70;;;;;;7016196;28;20500;-82
2022/08/01 13:04:00;;;;;;;4.90;2.90;;;27.70;73.00;;;;;;7024898;28;20509;-83
2022/08/01 13:07:22;;;;;;;4.30;2.67;;;27.80;73.30;;;;;;7022837;28;20628;-82
2022/08/01 13:10:45;;;;;;;4.63;2.70;;;28.00;71.90;;;;;;7020320;28;20430;-82
2022/08/01 13:14:08;;;;;;;4.70;2.83;;;28.20;69.70;;;;;;7021884;28;20440;-82
2022/08/01 13:17:32;;;;;;;3.70;2.50;;;28.20;71.60;;;;;;7022146;28;20827;-83
2022/08/01 13:21:10;;;;;;;5.38;2.70;;;28.30;69.50;;;;;;7022313;28;20571;-82
2022/08/01 13:24:32;;;;;;;4.70;2.50;;;28.70;70.00;;;;;;7022432;28;21050;-79
2022/08/01 13:28:15;;;;;;;6.03;2.88;;;28.70;68.90;;;;;;7021429;28;20430;-81
2022/08/01 13:31:40;;;;;;;5.60;3.10;;;28.40;69.20;;;;;;7021773;28;20830;-81
2022/08/01 13:35:03;;;;;;;7.43;4.85;;;28.50;69.50;;;;;;7022241;28;20862;-80
2022/08/01 13:42:06;;;;;;;5.65;2.40;;;28.40;69.70;;;;;;7021790;28;20907;-81
2022/08/01 13:45:28;;;;;;;5.03;2.50;;;28.20;69.00;;;;;;7021650;28;20426;-81
2022/08/01 13:48:51;;;;;;;4.45;2.33;;;28.30;69.10;;;;;;7021879;28;20437;-82
2022/08/01 13:52:13;;;;;;;4.28;2.38;;;28.50;69.90;;;;;;7016933;28;20480;-83
2022/08/01 13:55:35;;;;;;;5.63;2.37;;;28.70;69.00;;;;;;7019512;28;20441;-82
2022/08/01 13:58:58;;;;;;;4.80;2.40;;;28.70;68.80;;;;;;7019384;28;20433;-81
2022/08/01 14:02:20;;;;;;;4.25;2.33;;;28.80;67.60;;;;;;7020867;28;20476;-81
2022/08/01 14:05:44;;;;;;;4.27;2.20;;;29.20;67.90;;;;;;7017927;28;20433;-82
2022/08/01 14:09:06;;;;;;;3.78;2.30;;;29.60;65.80;;;;;;7017227;28;20778;-80
2022/08/01 14:12:28;;;;;;;4.90;2.17;;;29.80;64.30;;;;;;7001066;28;20445;-83
2022/08/01 14:15:50;;;;;;;10.18;6.43;;;29.80;64.80;;;;;;7019410;28;20444;-82
2022/08/01 14:19:16;;;;;;;4.90;2.30;;;30.10;65.40;;;;;;7018086;28;20525;-81
2022/08/01 14:22:40;;;;;;;6.90;3.70;;;30.40;64.20;;;;;;7012957;28;20434;-81
2022/08/01 14:26:02;;;;;;;4.25;2.33;;;30.70;64.30;;;;;;7021879;28;20441;-83
2022/08/01 14:29:24;;;;;;;4.78;2.40;;;30.70;64.60;;;;;;7019770;28;20441;-82
2022/08/01 14:32:46;;;;;;;5.32;2.15;;;31.00;64.30;;;;;;7020803;28;20791;-81
2022/08/01 14:36:08;;;;;;;4.93;2.20;;;30.70;63.80;;;;;;7017135;28;20468;-80
2022/08/01 14:39:32;;;;;;;4.80;2.20;;;30.50;63.80;;;;;;7017735;28;20448;-81
2022/08/01 14:42:54;;;;;;;4.40;2.00;;;30.40;62.90;;;;;;7018285;28;20476;-80
2022/08/01 14:46:16;;;;;;;5.10;2.20;;;30.30;63.70;;;;;;7016960;28;20477;-80
2022/08/01 14:49:38;;;;;;;4.57;2.30;;;30.20;62.90;;;;;;7017282;28;20461;-79
2022/08/01 14:53:00;;;;;;;4.32;2.10;;;29.70;65.30;;;;;;7018288;28;20457;-80
2022/08/01 14:56:23;;;;;;;5.30;2.10;;;29.90;65.30;;;;;;7017799;28;20443;-79
2022/08/01 14:59:46;;;;;;;4.85;2.17;;;29.80;64.50;;;;;;7018473;28;20468;-79
2022/08/01 15:03:08;;;;;;;4.30;2.08;;;29.50;65.20;;;;;;7022755;28;20438;-80
2022/08/01 15:06:30;;;;;;;5.00;2.10;;;28.90;67.10;;;;;;7024055;28;20425;-81
2022/08/01 15:09:52;;;;;;;4.82;2.25;;;29.20;67.40;;;;;;7021511;28;20460;-80
2022/08/01 15:13:16;;;;;;;5.85;2.78;;;28.90;67.80;;;;;;7023284;28;20469;-80
2022/08/01 15:16:38;;;;;;;4.95;2.10;;;29.10;69.00;;;;;;7024055;28;20453;-80
2022/08/01 15:20:03;;;;;;;4.35;2.10;;;28.70;68.60;;;;;;7024939;28;20433;-79
2022/08/01 15:23:26;;;;;;;5.20;2.55;;;28.60;69.40;;;;;;7022762;28;20442;-81
2022/08/01 15:26:48;;;;;;;4.45;2.20;;;28.80;69.40;;;;;;7022993;28;20863;-81
2022/08/01 15:30:12;;;;;;;4.72;2.20;;;28.80;69.20;;;;;;7022944;28;20816;-79
2022/08/01 15:33:35;;;;;;;4.83;2.20;;;29.00;69.10;;;;;;7019457;28;20437;-79
2022/08/01 15:36:57;;;;;;;4.47;2.13;;;29.00;70.10;;;;;;7023477;28;20434;-80
2022/08/01 15:40:19;;;;;;;3.90;2.40;;;28.90;70.00;;;;;;7022017;28;20834;-80
2022/08/01 15:43:41;;;;;;;5.32;2.30;;;28.70;71.10;;;;;;7021565;28;20768;-81
2022/08/01 15:47:05;;;;;;;4.67;2.10;;;28.60;70.50;;;;;;7021433;28;20452;-78
2022/08/01 15:50:28;;;;;;;4.95;2.25;;;28.50;70.10;;;;;;7021809;28;21260;-80
2022/08/01 15:53:50;;;;;;;5.80;2.60;;;28.40;70.10;;;;;;7017918;28;20434;-80
2022/08/01 15:57:12;;;;;;;5.90;2.90;;;28.20;70.70;;;;;;7021524;28;20426;-81
2022/08/01 16:00:34;;;;;;;5.57;2.50;;;27.80;73.00;;;;;;7020267;28;20815;-79
2022/08/01 16:03:59;;;;;;;4.93;2.20;;;27.50;73.60;;;;;;7015337;28;20552;-80
2022/08/01 16:07:21;;;;;;;4.95;2.30;;;27.70;73.50;;;;;;7020410;28;20440;-83
2022/08/01 16:10:44;;;;;;;5.78;2.60;;;27.80;73.60;;;;;;7017999;28;20438;-81
2022/08/01 16:14:06;;;;;;;5.78;2.40;;;27.50;75.20;;;;;;7023466;28;20893;-79
2022/08/01 16:17:28;;;;;;;5.60;2.40;;;27.40;74.40;;;;;;7021689;28;21105;-79
2022/08/01 16:20:52;;;;;;;5.88;2.40;;;27.00;74.20;;;;;;7019744;28;20440;-78
2022/08/01 16:24:14;;;;;;;5.80;2.08;;;26.80;73.90;;;;;;7026667;28;20445;-78
2022/08/01 16:27:36;;;;;;;4.38;2.20;;;26.80;73.50;;;;;;7021167;28;20429;-79
2022/08/01 16:30:58;;;;;;;5.28;2.20;;;26.70;74.40;;;;;;7020791;28;20911;-80
2022/08/01 16:34:20;;;;;;;4.90;2.20;;;26.80;75.40;;;;;;7020589;28;20434;-78
2022/08/01 16:37:44;;;;;;;4.60;2.10;;;26.60;75.50;;;;;;7020851;28;20472;-80
2022/08/01 16:41:06;;;;;;;3.70;2.03;;;26.60;75.80;;;;;;7022808;28;20445;-80
2022/08/01 16:44:29;;;;;;;4.10;2.10;;;26.70;76.20;;;;;;7017739;28;20466;-81
2022/08/01 16:47:51;;;;;;;4.22;2.00;;;27.00;76.50;;;;;;7023587;28;21174;-80
2022/08/01 16:51:14;;;;;;;4.07;2.10;;;26.80;77.30;;;;;;7024293;28;20429;-81
2022/08/01 16:54:38;;;;;;;5.28;2.30;;;26.80;77.00;;;;;;7017597;28;20434;-82
2022/08/01 16:58:00;;;;;;;4.88;2.33;;;26.70;79.80;;;;;;7022198;28;20465;-81
2022/08/01 17:01:24;;;;;;;4.20;2.30;;;26.40;81.40;;;;;;7022261;28;20481;-80
2022/08/01 17:04:46;;;;;;;5.10;2.30;;;26.40;82.20;;;;;;7021996;28;20520;-81
2022/08/01 17:08:09;;;;;;;4.73;2.33;;;26.30;83.30;;;;;;7020573;28;20553;-81
2022/08/01 17:11:33;;;;;;;4.63;2.20;;;26.30;83.50;;;;;;7018939;28;21073;-81
2022/08/01 17:14:55;;;;;;;4.83;2.27;;;26.20;82.10;;;;;;7018636;28;20845;-80
2022/08/01 17:18:18;;;;;;;4.60;2.08;;;25.90;82.30;;;;;;7022775;28;20850;-80
2022/08/01 17:21:40;;;;;;;4.50;2.10;;;25.80;82.30;;;;;;7018694;28;20488;-78
2022/08/01 17:25:03;;;;;;;6.13;3.40;;;25.80;82.40;;;;;;7029074;28;20441;-77
2022/08/01 17:28:26;;;;;;;4.95;2.22;;;25.80;82.60;;;;;;7031246;28;20437;-78
2022/08/01 17:31:48;;;;;;;3.70;2.00;;;25.80;83.50;;;;;;7031852;28;20435;-83
2022/08/01 17:35:12;;;;;;;3.83;2.00;;;25.90;83.70;;;;;;7024031;28;20941;-80
2022/08/01 17:38:34;;;;;;;4.10;2.20;;;25.80;84.30;;;;;;7025844;28;20524;-77
2022/08/01 17:41:56;;;;;;;4.75;2.25;;;25.40;85.90;;;;;;7021425;28;20529;-79
2022/08/01 17:45:20;;;;;;;5.10;2.50;;;25.40;87.50;;;;;;7021811;28;20485;-83
2022/08/01 17:48:43;;;;;;;4.43;2.20;;;25.30;88.70;;;;;;7021189;28;20441;-79